sensor_id;sensor_type;location;lat;lon;timestamp;P1;durP1;ratioP1;P2;durP2;ratioP2
51618;SDS011;38518;53.164;5.430;2023-08-20T00:00:39;15.93;;;5.30;;
51618;SDS011;38518;53.164;5.430;2023-08-20T00:03:11;13.60;;;5.47;;
51618;SDS011;38518;53.164;5.430;2023-08-20T00:05:39;14.27;;;5.18;;
51618;SDS011;38518;53.164;5.430;2023-08-20T00:08:05;13.30;;;5.35;;
51618;SDS011;38518;53.164;5.430;2023-08-20T00:10:31;13.48;;;4.90;;
51618;SDS011;38518;53.164;5.430;2023-08-20T00:12:58;16.42;;;5.00;;
51618;SDS011;38518;53.164;5.430;2023-08-20T00:15:24;11.25;;;5.00;;
51618;SDS011;38518;53.164;5.430;2023-08-20T00:17:53;12.07;;;4.70;;
51618;SDS011;38518;53.164;5.430;2023-08-20T00:20:23;9.45;;;4.50;;
51618;SDS011;38518;53.164;5.430;2023-08-20T00:22:49;10.73;;;4.90;;
51618;SDS011;38518;53.164;5.430;2023-08-20T00:25:16;15.00;;;5.47;;
51618;SDS011;38518;53.164;5.430;2023-08-20T00:27:42;15.00;;;5.15;;
51618;SDS011;38518;53.164;5.430;2023-08-20T00:30:09;12.77;;;5.00;;
51618;SDS011;38518;53.164;5.430;2023-08-20T00:32:35;11.43;;;4.82;;
51618;SDS011;38518;53.164;5.430;2023-08-20T00:35:02;10.60;;;4.47;;
51618;SDS011;38518;53.164;5.430;2023-08-20T00:37:28;10.68;;;4.45;;
51618;SDS011;38518;53.164;5.430;2023-08-20T00:39:54;10.68;;;4.97;;
51618;SDS011;38518;53.164;5.430;2023-08-20T00:42:20;14.50;;;5.65;;
51618;SDS011;38518;53.164;5.430;2023-08-20T00:44:47;12.70;;;4.95;;
51618;SDS011;38518;53.164;5.430;2023-08-20T00:47:13;9.95;;;4.78;;
51618;SDS011;38518;53.164;5.430;2023-08-20T00:49:39;12.07;;;5.00;;
51618;SDS011;38518;53.164;5.430;2023-08-20T00:52:07;9.43;;;5.50;;
51618;SDS011;38518;53.164;5.430;2023-08-20T00:54:34;11.05;;;5.60;;
51618;SDS011;38518;53.164;5.430;2023-08-20T00:57:01;16.05;;;6.10;;
51618;SDS011;38518;53.164;5.430;2023-08-20T00:59:28;13.95;;;5.55;;
51618;SDS011;38518;53.164;5.430;2023-08-20T01:01:55;13.45;;;6.07;;
51618;SDS011;38518;53.164;5.430;2023-08-20T01:04:21;14.52;;;5.97;;
51618;SDS011;38518;53.164;5.430;2023-08-20T01:06:53;14.80;;;5.80;;
51618;SDS011;38518;53.164;5.430;2023-08-20T01:09:34;14.32;;;6.05;;
51618;SDS011;38518;53.164;5.430;2023-08-20T01:12:03;12.40;;;6.07;;
51618;SDS011;38518;53.164;5.430;2023-08-20T01:14:29;15.10;;;5.95;;
51618;SDS011;38518;53.164;5.430;2023-08-20T01:16:55;12.80;;;5.75;;
51618;SDS011;38518;53.164;5.430;2023-08-20T01:19:21;11.93;;;5.22;;
51618;SDS011;38518;53.164;5.430;2023-08-20T01:21:56;15.95;;;5.90;;
51618;SDS011;38518;53.164;5.430;2023-08-20T01:24:31;11.98;;;4.15;;
51618;SDS011;38518;53.164;5.430;2023-08-20T01:29:25;16.80;;;3.90;;
51618;SDS011;38518;53.164;5.430;2023-08-20T01:31:52;13.90;;;3.85;;
51618;SDS011;38518;53.164;5.430;2023-08-20T01:34:19;14.68;;;4.18;;
51618;SDS011;38518;53.164;5.430;2023-08-20T01:36:45;13.85;;;3.78;;
51618;SDS011;38518;53.164;5.430;2023-08-20T01:39:11;8.88;;;3.25;;
51618;SDS011;38518;53.164;5.430;2023-08-20T01:41:38;11.05;;;3.15;;
51618;SDS011;38518;53.164;5.430;2023-08-20T01:44:05;16.85;;;3.92;;
51618;SDS011;38518;53.164;5.430;2023-08-20T01:46:32;15.27;;;3.90;;
51618;SDS011;38518;53.164;5.430;2023-08-20T01:48:58;15.30;;;3.67;;
51618;SDS011;38518;53.164;5.430;2023-08-20T01:51:24;13.55;;;3.80;;
51618;SDS011;38518;53.164;5.430;2023-08-20T01:53:50;13.38;;;3.53;;
51618;SDS011;38518;53.164;5.430;2023-08-20T01:56:17;17.85;;;4.93;;
51618;SDS011;38518;53.164;5.430;2023-08-20T01:58:43;13.10;;;4.10;;
51618;SDS011;38518;53.164;5.430;2023-08-20T02:01:09;11.43;;;4.85;;
51618;SDS011;38518;53.164;5.430;2023-08-20T02:03:36;15.10;;;5.03;;
51618;SDS011;38518;53.164;5.430;2023-08-20T02:06:03;13.98;;;5.13;;
51618;SDS011;38518;53.164;5.430;2023-08-20T02:08:29;14.88;;;5.07;;
51618;SDS011;38518;53.164;5.430;2023-08-20T02:11:02;12.20;;;5.00;;
51618;SDS011;38518;53.164;5.430;2023-08-20T02:13:28;13.77;;;5.40;;
51618;SDS011;38518;53.164;5.430;2023-08-20T02:15:58;19.15;;;5.78;;
51618;SDS011;38518;53.164;5.430;2023-08-20T02:18:24;13.07;;;5.53;;
51618;SDS011;38518;53.164;5.430;2023-08-20T02:20:50;13.38;;;5.15;;
51618;SDS011;38518;53.164;5.430;2023-08-20T02:23:16;14.80;;;5.32;;
51618;SDS011;38518;53.164;5.430;2023-08-20T02:25:43;13.88;;;4.93;;
51618;SDS011;38518;53.164;5.430;2023-08-20T02:28:09;12.85;;;4.68;;
51618;SDS011;38518;53.164;5.430;2023-08-20T02:30:45;15.60;;;5.50;;
51618;SDS011;38518;53.164;5.430;2023-08-20T02:33:11;16.05;;;4.88;;
51618;SDS011;38518;53.164;5.430;2023-08-20T02:35:38;16.65;;;4.55;;
51618;SDS011;38518;53.164;5.430;2023-08-20T02:38:04;12.05;;;4.85;;
51618;SDS011;38518;53.164;5.430;2023-08-20T02:40:30;14.18;;;5.53;;
51618;SDS011;38518;53.164;5.430;2023-08-20T02:42:57;17.10;;;5.88;;
51618;SDS011;38518;53.164;5.430;2023-08-20T02:45:23;12.13;;;4.60;;
51618;SDS011;38518;53.164;5.430;2023-08-20T02:47:49;13.88;;;5.00;;
51618;SDS011;38518;53.164;5.430;2023-08-20T02:50:15;12.93;;;4.68;;
51618;SDS011;38518;53.164;5.430;2023-08-20T02:52:44;15.63;;;6.03;;
51618;SDS011;38518;53.164;5.430;2023-08-20T02:55:11;13.48;;;5.47;;
51618;SDS011;38518;53.164;5.430;2023-08-20T02:57:37;18.42;;;6.43;;
51618;SDS011;38518;53.164;5.430;2023-08-20T03:00:03;14.77;;;5.95;;
51618;SDS011;38518;53.164;5.430;2023-08-20T03:02:29;11.90;;;6.07;;
51618;SDS011;38518;53.164;5.430;2023-08-20T03:04:55;11.73;;;5.53;;
51618;SDS011;38518;53.164;5.430;2023-08-20T03:07:22;14.23;;;5.60;;
51618;SDS011;38518;53.164;5.430;2023-08-20T03:09:48;14.00;;;5.65;;
51618;SDS011;38518;53.164;5.430;2023-08-20T03:12:14;14.35;;;5.65;;
51618;SDS011;38518;53.164;5.430;2023-08-20T03:14:40;15.07;;;6.30;;
51618;SDS011;38518;53.164;5.430;2023-08-20T03:17:06;15.38;;;6.60;;
51618;SDS011;38518;53.164;5.430;2023-08-20T03:19:33;15.65;;;6.32;;
51618;SDS011;38518;53.164;5.430;2023-08-20T03:22:02;16.20;;;6.40;;
51618;SDS011;38518;53.164;5.430;2023-08-20T03:24:28;13.05;;;6.05;;
51618;SDS011;38518;53.164;5.430;2023-08-20T03:26:54;15.25;;;6.40;;
51618;SDS011;38518;53.164;5.430;2023-08-20T03:29:20;15.93;;;6.72;;
51618;SDS011;38518;53.164;5.430;2023-08-20T03:31:47;16.38;;;6.57;;
51618;SDS011;38518;53.164;5.430;2023-08-20T03:34:13;14.70;;;6.10;;
51618;SDS011;38518;53.164;5.430;2023-08-20T03:36:39;16.02;;;5.28;;
51618;SDS011;38518;53.164;5.430;2023-08-20T03:39:05;14.20;;;5.28;;
51618;SDS011;38518;53.164;5.430;2023-08-20T03:41:31;9.95;;;3.95;;
51618;SDS011;38518;53.164;5.430;2023-08-20T03:43:57;13.27;;;4.10;;
51618;SDS011;38518;53.164;5.430;2023-08-20T03:46:23;17.60;;;4.45;;
51618;SDS011;38518;53.164;5.430;2023-08-20T03:48:49;15.70;;;4.43;;
51618;SDS011;38518;53.164;5.430;2023-08-20T03:51:15;14.48;;;4.10;;
51618;SDS011;38518;53.164;5.430;2023-08-20T03:53:42;15.02;;;3.97;;
51618;SDS011;38518;53.164;5.430;2023-08-20T03:56:08;20.13;;;4.78;;
51618;SDS011;38518;53.164;5.430;2023-08-20T03:58:37;14.68;;;4.43;;
51618;SDS011;38518;53.164;5.430;2023-08-20T04:01:03;15.80;;;4.03;;
51618;SDS011;38518;53.164;5.430;2023-08-20T04:03:29;15.88;;;4.07;;
51618;SDS011;38518;53.164;5.430;2023-08-20T04:05:55;21.08;;;4.63;;
51618;SDS011;38518;53.164;5.430;2023-08-20T04:08:21;13.70;;;4.25;;
51618;SDS011;38518;53.164;5.430;2023-08-20T04:10:47;15.20;;;4.60;;
51618;SDS011;38518;53.164;5.430;2023-08-20T04:13:14;14.02;;;4.25;;
51618;SDS011;38518;53.164;5.430;2023-08-20T04:15:41;15.75;;;3.55;;
51618;SDS011;38518;53.164;5.430;2023-08-20T04:18:07;16.40;;;4.50;;
51618;SDS011;38518;53.164;5.430;2023-08-20T04:20:33;11.18;;;4.50;;
51618;SDS011;38518;53.164;5.430;2023-08-20T04:22:59;12.50;;;3.47;;
51618;SDS011;38518;53.164;5.430;2023-08-20T04:25:26;16.40;;;4.50;;
51618;SDS011;38518;53.164;5.430;2023-08-20T04:27:52;19.13;;;4.68;;
51618;SDS011;38518;53.164;5.430;2023-08-20T04:30:18;15.85;;;4.40;;
51618;SDS011;38518;53.164;5.430;2023-08-20T04:32:45;15.52;;;4.97;;
51618;SDS011;38518;53.164;5.430;2023-08-20T04:35:11;17.45;;;4.25;;
51618;SDS011;38518;53.164;5.430;2023-08-20T04:37:37;16.13;;;4.10;;
51618;SDS011;38518;53.164;5.430;2023-08-20T04:40:03;17.13;;;3.72;;
51618;SDS011;38518;53.164;5.430;2023-08-20T04:42:30;15.63;;;4.07;;
51618;SDS011;38518;53.164;5.430;2023-08-20T04:44:59;14.02;;;4.00;;
51618;SDS011;38518;53.164;5.430;2023-08-20T04:47:25;19.67;;;4.25;;
51618;SDS011;38518;53.164;5.430;2023-08-20T04:49:51;14.82;;;4.22;;
51618;SDS011;38518;53.164;5.430;2023-08-20T04:52:17;17.42;;;3.97;;
51618;SDS011;38518;53.164;5.430;2023-08-20T04:54:45;15.93;;;4.32;;
51618;SDS011;38518;53.164;5.430;2023-08-20T04:57:11;14.48;;;4.03;;
51618;SDS011;38518;53.164;5.430;2023-08-20T04:59:37;14.60;;;4.18;;
51618;SDS011;38518;53.164;5.430;2023-08-20T05:02:03;16.52;;;4.32;;
51618;SDS011;38518;53.164;5.430;2023-08-20T05:04:29;19.50;;;3.97;;
51618;SDS011;38518;53.164;5.430;2023-08-20T05:06:55;15.02;;;3.88;;
51618;SDS011;38518;53.164;5.430;2023-08-20T05:09:21;17.38;;;4.80;;
51618;SDS011;38518;53.164;5.430;2023-08-20T05:11:47;16.85;;;4.63;;
51618;SDS011;38518;53.164;5.430;2023-08-20T05:14:14;16.55;;;4.75;;
51618;SDS011;38518;53.164;5.430;2023-08-20T05:16:40;15.40;;;4.57;;
51618;SDS011;38518;53.164;5.430;2023-08-20T05:19:06;18.38;;;4.68;;
51618;SDS011;38518;53.164;5.430;2023-08-20T05:21:32;15.63;;;4.90;;
51618;SDS011;38518;53.164;5.430;2023-08-20T05:23:58;18.77;;;4.70;;
51618;SDS011;38518;53.164;5.430;2023-08-20T05:26:24;14.23;;;4.40;;
51618;SDS011;38518;53.164;5.430;2023-08-20T05:28:50;17.10;;;4.35;;
51618;SDS011;38518;53.164;5.430;2023-08-20T05:31:16;15.27;;;4.90;;
51618;SDS011;38518;53.164;5.430;2023-08-20T05:33:42;15.25;;;4.35;;
51618;SDS011;38518;53.164;5.430;2023-08-20T05:36:08;19.90;;;4.63;;
51618;SDS011;38518;53.164;5.430;2023-08-20T05:38:34;11.85;;;4.03;;
51618;SDS011;38518;53.164;5.430;2023-08-20T05:41:00;19.40;;;4.50;;
51618;SDS011;38518;53.164;5.430;2023-08-20T05:43:27;17.75;;;4.35;;
51618;SDS011;38518;53.164;5.430;2023-08-20T05:45:53;14.88;;;4.10;;
51618;SDS011;38518;53.164;5.430;2023-08-20T05:48:19;17.63;;;4.82;;
51618;SDS011;38518;53.164;5.430;2023-08-20T05:50:45;16.70;;;4.45;;
51618;SDS011;38518;53.164;5.430;2023-08-20T05:53:11;15.13;;;4.13;;
51618;SDS011;38518;53.164;5.430;2023-08-20T05:55:37;14.57;;;4.40;;
51618;SDS011;38518;53.164;5.430;2023-08-20T05:58:04;16.05;;;3.90;;
51618;SDS011;38518;53.164;5.430;2023-08-20T06:00:33;14.73;;;3.80;;
51618;SDS011;38518;53.164;5.430;2023-08-20T06:02:59;16.27;;;3.92;;
51618;SDS011;38518;53.164;5.430;2023-08-20T06:05:25;14.80;;;3.53;;
51618;SDS011;38518;53.164;5.430;2023-08-20T06:07:51;9.68;;;3.78;;
51618;SDS011;38518;53.164;5.430;2023-08-20T06:10:17;13.07;;;3.90;;
51618;SDS011;38518;53.164;5.430;2023-08-20T06:12:43;12.18;;;3.45;;
51618;SDS011;38518;53.164;5.430;2023-08-20T06:15:09;16.58;;;4.22;;
51618;SDS011;38518;53.164;5.430;2023-08-20T06:17:36;14.95;;;3.83;;
51618;SDS011;38518;53.164;5.430;2023-08-20T06:20:02;15.10;;;3.75;;
51618;SDS011;38518;53.164;5.430;2023-08-20T06:22:30;13.20;;;3.55;;
51618;SDS011;38518;53.164;5.430;2023-08-20T06:24:56;12.80;;;3.95;;
51618;SDS011;38518;53.164;5.430;2023-08-20T06:27:23;15.45;;;4.07;;
51618;SDS011;38518;53.164;5.430;2023-08-20T06:29:49;14.82;;;3.67;;
51618;SDS011;38518;53.164;5.430;2023-08-20T06:32:15;12.35;;;3.53;;
51618;SDS011;38518;53.164;5.430;2023-08-20T06:34:41;12.00;;;3.45;;
51618;SDS011;38518;53.164;5.430;2023-08-20T06:37:07;12.10;;;3.05;;
51618;SDS011;38518;53.164;5.430;2023-08-20T06:39:34;12.10;;;3.58;;
51618;SDS011;38518;53.164;5.430;2023-08-20T06:42:00;12.00;;;3.65;;
51618;SDS011;38518;53.164;5.430;2023-08-20T06:44:25;17.90;;;4.20;;
51618;SDS011;38518;53.164;5.430;2023-08-20T06:46:51;10.70;;;3.50;;
51618;SDS011;38518;53.164;5.430;2023-08-20T06:49:17;13.88;;;3.72;;
51618;SDS011;38518;53.164;5.430;2023-08-20T06:51:43;12.32;;;4.15;;
51618;SDS011;38518;53.164;5.430;2023-08-20T06:54:08;13.95;;;3.38;;
51618;SDS011;38518;53.164;5.430;2023-08-20T06:56:34;12.25;;;3.72;;
51618;SDS011;38518;53.164;5.430;2023-08-20T06:59:03;12.90;;;3.75;;
51618;SDS011;38518;53.164;5.430;2023-08-20T07:01:29;12.85;;;3.25;;
51618;SDS011;38518;53.164;5.430;2023-08-20T07:03:54;13.48;;;3.42;;
51618;SDS011;38518;53.164;5.430;2023-08-20T07:06:20;13.10;;;3.47;;
51618;SDS011;38518;53.164;5.430;2023-08-20T07:08:46;10.50;;;3.25;;
51618;SDS011;38518;53.164;5.430;2023-08-20T07:11:12;14.70;;;3.80;;
51618;SDS011;38518;53.164;5.430;2023-08-20T07:13:37;11.57;;;3.45;;
51618;SDS011;38518;53.164;5.430;2023-08-20T07:16:03;12.73;;;3.35;;
51618;SDS011;38518;53.164;5.430;2023-08-20T07:18:29;13.77;;;3.70;;
51618;SDS011;38518;53.164;5.430;2023-08-20T07:20:55;13.20;;;3.77;;
51618;SDS011;38518;53.164;5.430;2023-08-20T07:23:21;12.48;;;3.17;;
51618;SDS011;38518;53.164;5.430;2023-08-20T07:25:47;12.85;;;3.47;;
51618;SDS011;38518;53.164;5.430;2023-08-20T07:28:13;11.27;;;3.20;;
51618;SDS011;38518;53.164;5.430;2023-08-20T07:30:39;13.50;;;3.80;;
51618;SDS011;38518;53.164;5.430;2023-08-20T07:33:08;12.05;;;3.28;;
51618;SDS011;38518;53.164;5.430;2023-08-20T07:35:34;15.82;;;4.28;;
51618;SDS011;38518;53.164;5.430;2023-08-20T07:38:00;14.57;;;3.67;;
51618;SDS011;38518;53.164;5.430;2023-08-20T07:40:26;13.55;;;3.58;;
51618;SDS011;38518;53.164;5.430;2023-08-20T07:42:52;11.13;;;3.08;;
51618;SDS011;38518;53.164;5.430;2023-08-20T07:45:18;11.18;;;3.40;;
51618;SDS011;38518;53.164;5.430;2023-08-20T07:47:43;13.38;;;3.28;;
51618;SDS011;38518;53.164;5.430;2023-08-20T07:50:12;11.82;;;4.25;;
51618;SDS011;38518;53.164;5.430;2023-08-20T07:52:44;16.20;;;3.45;;
51618;SDS011;38518;53.164;5.430;2023-08-20T07:55:10;10.30;;;3.13;;
51618;SDS011;38518;53.164;5.430;2023-08-20T07:57:46;16.60;;;4.18;;
51618;SDS011;38518;53.164;5.430;2023-08-20T08:00:19;11.98;;;3.53;;
51618;SDS011;38518;53.164;5.430;2023-08-20T08:02:45;12.02;;;3.53;;
51618;SDS011;38518;53.164;5.430;2023-08-20T08:05:11;12.98;;;3.15;;
51618;SDS011;38518;53.164;5.430;2023-08-20T08:07:38;15.02;;;3.50;;
51618;SDS011;38518;53.164;5.430;2023-08-20T08:10:04;9.35;;;3.20;;
51618;SDS011;38518;53.164;5.430;2023-08-20T08:12:31;12.52;;;3.00;;
51618;SDS011;38518;53.164;5.430;2023-08-20T08:14:56;9.02;;;2.97;;
51618;SDS011;38518;53.164;5.430;2023-08-20T08:17:22;11.07;;;3.22;;
51618;SDS011;38518;53.164;5.430;2023-08-20T08:19:51;13.88;;;3.35;;
51618;SDS011;38518;53.164;5.430;2023-08-20T08:22:29;9.30;;;3.00;;
51618;SDS011;38518;53.164;5.430;2023-08-20T08:25:08;9.60;;;2.80;;
51618;SDS011;38518;53.164;5.430;2023-08-20T08:27:33;10.88;;;3.17;;
51618;SDS011;38518;53.164;5.430;2023-08-20T08:30:02;12.57;;;3.45;;
51618;SDS011;38518;53.164;5.430;2023-08-20T08:32:29;14.02;;;3.05;;
51618;SDS011;38518;53.164;5.430;2023-08-20T08:34:54;10.35;;;2.75;;
51618;SDS011;38518;53.164;5.430;2023-08-20T08:37:26;12.30;;;3.35;;
51618;SDS011;38518;53.164;5.430;2023-08-20T08:40:15;9.70;;;3.08;;
51618;SDS011;38518;53.164;5.430;2023-08-20T08:42:41;11.98;;;3.30;;
51618;SDS011;38518;53.164;5.430;2023-08-20T08:45:08;12.38;;;2.72;;
51618;SDS011;38518;53.164;5.430;2023-08-20T08:47:38;10.43;;;2.78;;
51618;SDS011;38518;53.164;5.430;2023-08-20T08:50:15;8.02;;;2.78;;
51618;SDS011;38518;53.164;5.430;2023-08-20T08:52:46;10.40;;;2.78;;
51618;SDS011;38518;53.164;5.430;2023-08-20T08:55:15;9.35;;;2.95;;
51618;SDS011;38518;53.164;5.430;2023-08-20T08:57:41;13.00;;;3.40;;
51618;SDS011;38518;53.164;5.430;2023-08-20T09:00:07;9.32;;;2.65;;
51618;SDS011;38518;53.164;5.430;2023-08-20T09:02:33;8.98;;;2.92;;
51618;SDS011;38518;53.164;5.430;2023-08-20T09:04:59;9.60;;;2.95;;
51618;SDS011;38518;53.164;5.430;2023-08-20T09:07:25;10.95;;;2.95;;
51618;SDS011;38518;53.164;5.430;2023-08-20T09:09:57;12.18;;;2.97;;
51618;SDS011;38518;53.164;5.430;2023-08-20T09:12:25;10.30;;;3.20;;
51618;SDS011;38518;53.164;5.430;2023-08-20T09:14:52;9.48;;;3.00;;
51618;SDS011;38518;53.164;5.430;2023-08-20T09:17:19;9.68;;;2.90;;
51618;SDS011;38518;53.164;5.430;2023-08-20T09:19:46;9.65;;;3.08;;
51618;SDS011;38518;53.164;5.430;2023-08-20T09:22:21;10.63;;;2.83;;
51618;SDS011;38518;53.164;5.430;2023-08-20T09:24:56;12.05;;;3.33;;
51618;SDS011;38518;53.164;5.430;2023-08-20T09:27:22;10.88;;;3.33;;
51618;SDS011;38518;53.164;5.430;2023-08-20T09:29:52;10.93;;;3.60;;
51618;SDS011;38518;53.164;5.430;2023-08-20T09:32:23;7.88;;;2.88;;
51618;SDS011;38518;53.164;5.430;2023-08-20T09:34:50;10.85;;;3.45;;
51618;SDS011;38518;53.164;5.430;2023-08-20T09:37:18;9.98;;;3.20;;
51618;SDS011;38518;53.164;5.430;2023-08-20T09:39:45;10.88;;;3.13;;
51618;SDS011;38518;53.164;5.430;2023-08-20T09:45:51;10.65;;;2.72;;
51618;SDS011;38518;53.164;5.430;2023-08-20T09:48:23;9.55;;;2.78;;
51618;SDS011;38518;53.164;5.430;2023-08-20T09:50:52;9.00;;;2.90;;
51618;SDS011;38518;53.164;5.430;2023-08-20T09:53:27;9.88;;;3.55;;
51618;SDS011;38518;53.164;5.430;2023-08-20T09:56:03;11.93;;;2.88;;
51618;SDS011;38518;53.164;5.430;2023-08-20T09:58:40;9.38;;;2.63;;
51618;SDS011;38518;53.164;5.430;2023-08-20T10:01:08;7.45;;;2.50;;
51618;SDS011;38518;53.164;5.430;2023-08-20T10:03:34;9.57;;;2.67;;
51618;SDS011;38518;53.164;5.430;2023-08-20T10:06:00;8.63;;;2.72;;
51618;SDS011;38518;53.164;5.430;2023-08-20T10:08:26;12.13;;;3.28;;
51618;SDS011;38518;53.164;5.430;2023-08-20T10:10:53;8.73;;;2.63;;
51618;SDS011;38518;53.164;5.430;2023-08-20T10:13:18;9.30;;;2.97;;
51618;SDS011;38518;53.164;5.430;2023-08-20T10:15:44;8.98;;;3.03;;
51618;SDS011;38518;53.164;5.430;2023-08-20T10:18:14;9.73;;;2.92;;
51618;SDS011;38518;53.164;5.430;2023-08-20T10:20:42;7.05;;;2.75;;
51618;SDS011;38518;53.164;5.430;2023-08-20T10:23:09;11.13;;;3.05;;
51618;SDS011;38518;53.164;5.430;2023-08-20T10:25:41;10.15;;;2.90;;
51618;SDS011;38518;53.164;5.430;2023-08-20T10:28:13;8.75;;;2.95;;
51618;SDS011;38518;53.164;5.430;2023-08-20T10:33:33;10.02;;;3.35;;
51618;SDS011;38518;53.164;5.430;2023-08-20T10:36:08;7.85;;;2.80;;
51618;SDS011;38518;53.164;5.430;2023-08-20T10:38:36;9.25;;;3.03;;
51618;SDS011;38518;53.164;5.430;2023-08-20T10:41:04;8.82;;;3.13;;
51618;SDS011;38518;53.164;5.430;2023-08-20T10:43:39;9.77;;;2.80;;
51618;SDS011;38518;53.164;5.430;2023-08-20T10:46:15;9.13;;;3.00;;
51618;SDS011;38518;53.164;5.430;2023-08-20T10:48:52;8.57;;;2.80;;
51618;SDS011;38518;53.164;5.430;2023-08-20T10:51:24;6.93;;;2.70;;
51618;SDS011;38518;53.164;5.430;2023-08-20T10:57:08;9.50;;;2.85;;
51618;SDS011;38518;53.164;5.430;2023-08-20T10:59:27;8.05;;;2.90;;
51618;SDS011;38518;53.164;5.430;2023-08-20T11:01:57;7.47;;;3.00;;
51618;SDS011;38518;53.164;5.430;2023-08-20T11:04:28;9.45;;;3.17;;
51618;SDS011;38518;53.164;5.430;2023-08-20T11:06:57;9.18;;;3.03;;
51618;SDS011;38518;53.164;5.430;2023-08-20T11:09:28;8.10;;;2.63;;
51618;SDS011;38518;53.164;5.430;2023-08-20T11:11:54;8.88;;;2.83;;
51618;SDS011;38518;53.164;5.430;2023-08-20T11:14:21;11.30;;;3.13;;
51618;SDS011;38518;53.164;5.430;2023-08-20T11:16:48;11.45;;;3.38;;
51618;SDS011;38518;53.164;5.430;2023-08-20T11:19:14;9.82;;;2.90;;
51618;SDS011;38518;53.164;5.430;2023-08-20T11:21:45;8.95;;;2.80;;
51618;SDS011;38518;53.164;5.430;2023-08-20T11:24:12;11.48;;;3.38;;
51618;SDS011;38518;53.164;5.430;2023-08-20T11:26:41;11.80;;;4.00;;
51618;SDS011;38518;53.164;5.430;2023-08-20T11:29:08;9.30;;;2.70;;
51618;SDS011;38518;53.164;5.430;2023-08-20T11:31:53;9.43;;;3.00;;
51618;SDS011;38518;53.164;5.430;2023-08-20T11:34:20;7.28;;;2.80;;
51618;SDS011;38518;53.164;5.430;2023-08-20T11:36:46;9.43;;;2.92;;
51618;SDS011;38518;53.164;5.430;2023-08-20T11:39:13;6.97;;;2.85;;
51618;SDS011;38518;53.164;5.430;2023-08-20T11:41:39;6.30;;;2.53;;
51618;SDS011;38518;53.164;5.430;2023-08-20T11:44:10;7.47;;;3.10;;
51618;SDS011;38518;53.164;5.430;2023-08-20T11:46:44;9.50;;;3.28;;
51618;SDS011;38518;53.164;5.430;2023-08-20T11:49:10;10.45;;;3.10;;
51618;SDS011;38518;53.164;5.430;2023-08-20T11:51:37;8.82;;;2.88;;
51618;SDS011;38518;53.164;5.430;2023-08-20T11:54:08;10.27;;;2.83;;
51618;SDS011;38518;53.164;5.430;2023-08-20T11:56:48;12.20;;;2.97;;
51618;SDS011;38518;53.164;5.430;2023-08-20T11:59:18;6.45;;;2.60;;
51618;SDS011;38518;53.164;5.430;2023-08-20T12:02:02;11.13;;;3.38;;
51618;SDS011;38518;53.164;5.430;2023-08-20T12:04:36;9.35;;;2.80;;
51618;SDS011;38518;53.164;5.430;2023-08-20T12:09:34;8.05;;;2.60;;
51618;SDS011;38518;53.164;5.430;2023-08-20T12:11:59;10.40;;;2.83;;
51618;SDS011;38518;53.164;5.430;2023-08-20T12:14:35;9.55;;;3.08;;
51618;SDS011;38518;53.164;5.430;2023-08-20T12:17:01;10.40;;;2.97;;
51618;SDS011;38518;53.164;5.430;2023-08-20T12:19:28;9.43;;;4.95;;
51618;SDS011;38518;53.164;5.430;2023-08-20T12:21:54;10.18;;;3.22;;
51618;SDS011;38518;53.164;5.430;2023-08-20T12:24:20;9.52;;;5.15;;
51618;SDS011;38518;53.164;5.430;2023-08-20T12:26:46;12.32;;;5.30;;
51618;SDS011;38518;53.164;5.430;2023-08-20T12:29:11;8.98;;;4.20;;
51618;SDS011;38518;53.164;5.430;2023-08-20T12:31:38;8.07;;;2.85;;
51618;SDS011;38518;53.164;5.430;2023-08-20T12:34:06;9.55;;;2.72;;
51618;SDS011;38518;53.164;5.430;2023-08-20T12:36:37;9.07;;;2.67;;
51618;SDS011;38518;53.164;5.430;2023-08-20T12:39:03;9.52;;;2.60;;
51618;SDS011;38518;53.164;5.430;2023-08-20T12:41:30;7.65;;;2.45;;
51618;SDS011;38518;53.164;5.430;2023-08-20T12:43:56;8.57;;;2.63;;
51618;SDS011;38518;53.164;5.430;2023-08-20T12:46:22;7.85;;;3.00;;
51618;SDS011;38518;53.164;5.430;2023-08-20T12:48:48;10.77;;;3.03;;
51618;SDS011;38518;53.164;5.430;2023-08-20T12:51:13;6.97;;;2.40;;
51618;SDS011;38518;53.164;5.430;2023-08-20T12:53:42;10.52;;;3.00;;
51618;SDS011;38518;53.164;5.430;2023-08-20T12:56:08;6.07;;;2.15;;
51618;SDS011;38518;53.164;5.430;2023-08-20T12:58:34;8.13;;;2.80;;
51618;SDS011;38518;53.164;5.430;2023-08-20T13:01:03;8.48;;;2.72;;
51618;SDS011;38518;53.164;5.430;2023-08-20T13:03:29;7.38;;;2.40;;
51618;SDS011;38518;53.164;5.430;2023-08-20T13:05:55;7.05;;;3.00;;
51618;SDS011;38518;53.164;5.430;2023-08-20T13:08:27;9.57;;;2.80;;
51618;SDS011;38518;53.164;5.430;2023-08-20T13:10:55;10.75;;;2.78;;
51618;SDS011;38518;53.164;5.430;2023-08-20T13:13:22;9.35;;;3.10;;
51618;SDS011;38518;53.164;5.430;2023-08-20T13:15:49;10.25;;;2.88;;
51618;SDS011;38518;53.164;5.430;2023-08-20T13:18:17;8.90;;;2.65;;
51618;SDS011;38518;53.164;5.430;2023-08-20T13:20:43;8.60;;;2.53;;
51618;SDS011;38518;53.164;5.430;2023-08-20T13:23:09;10.27;;;2.47;;
51618;SDS011;38518;53.164;5.430;2023-08-20T13:25:38;10.10;;;2.97;;
51618;SDS011;38518;53.164;5.430;2023-08-20T13:28:04;7.78;;;2.72;;
51618;SDS011;38518;53.164;5.430;2023-08-20T13:30:29;7.88;;;2.40;;
51618;SDS011;38518;53.164;5.430;2023-08-20T13:32:58;8.93;;;2.70;;
51618;SDS011;38518;53.164;5.430;2023-08-20T13:35:24;10.75;;;2.72;;
51618;SDS011;38518;53.164;5.430;2023-08-20T13:37:52;14.23;;;2.90;;
51618;SDS011;38518;53.164;5.430;2023-08-20T13:40:18;9.18;;;2.70;;
51618;SDS011;38518;53.164;5.430;2023-08-20T13:42:44;7.13;;;2.47;;
51618;SDS011;38518;53.164;5.430;2023-08-20T13:45:10;9.80;;;2.80;;
51618;SDS011;38518;53.164;5.430;2023-08-20T13:47:35;10.60;;;2.75;;
51618;SDS011;38518;53.164;5.430;2023-08-20T13:50:02;8.98;;;2.90;;
51618;SDS011;38518;53.164;5.430;2023-08-20T13:52:29;8.23;;;2.63;;
51618;SDS011;38518;53.164;5.430;2023-08-20T13:54:55;10.02;;;2.65;;
51618;SDS011;38518;53.164;5.430;2023-08-20T13:57:24;6.47;;;2.30;;
51618;SDS011;38518;53.164;5.430;2023-08-20T13:59:50;7.82;;;2.50;;
51618;SDS011;38518;53.164;5.430;2023-08-20T14:02:16;6.10;;;2.22;;
51618;SDS011;38518;53.164;5.430;2023-08-20T14:04:41;6.13;;;2.38;;
51618;SDS011;38518;53.164;5.430;2023-08-20T14:07:10;6.95;;;2.50;;
51618;SDS011;38518;53.164;5.430;2023-08-20T14:09:39;7.13;;;2.60;;
51618;SDS011;38518;53.164;5.430;2023-08-20T14:12:05;5.60;;;2.30;;
51618;SDS011;38518;53.164;5.430;2023-08-20T14:14:31;6.93;;;2.15;;
51618;SDS011;38518;53.164;5.430;2023-08-20T14:16:57;7.68;;;2.55;;
51618;SDS011;38518;53.164;5.430;2023-08-20T14:19:23;4.88;;;2.13;;
51618;SDS011;38518;53.164;5.430;2023-08-20T14:21:49;7.85;;;2.50;;
51618;SDS011;38518;53.164;5.430;2023-08-20T14:24:16;6.00;;;1.98;;
51618;SDS011;38518;53.164;5.430;2023-08-20T14:26:42;5.47;;;1.88;;
51618;SDS011;38518;53.164;5.430;2023-08-20T14:29:07;5.85;;;2.10;;
51618;SDS011;38518;53.164;5.430;2023-08-20T14:31:33;7.32;;;2.10;;
51618;SDS011;38518;53.164;5.430;2023-08-20T14:33:59;5.40;;;2.10;;
51618;SDS011;38518;53.164;5.430;2023-08-20T14:36:25;8.07;;;2.63;;
51618;SDS011;38518;53.164;5.430;2023-08-20T14:38:51;6.43;;;2.00;;
51618;SDS011;38518;53.164;5.430;2023-08-20T14:41:16;5.10;;;2.33;;
51618;SDS011;38518;53.164;5.430;2023-08-20T14:43:42;7.07;;;2.47;;
51618;SDS011;38518;53.164;5.430;2023-08-20T14:46:08;6.90;;;2.15;;
51618;SDS011;38518;53.164;5.430;2023-08-20T14:48:34;9.32;;;2.38;;
51618;SDS011;38518;53.164;5.430;2023-08-20T14:51:00;5.90;;;2.22;;
51618;SDS011;38518;53.164;5.430;2023-08-20T14:53:26;8.57;;;2.33;;